Time;durP1;ratioP1;P1;durP2;ratioP2;P2;SDS_P1;SDS_P2;PMS_P1;PMS_P2;Temp;Humidity;BMP_temperature;BMP_pressure;BME280_temperature;BME280_humidity;BME280_pressure;Samples;Min_cycle;Max_cycle;Signal;HPM_P1;HPM_P2
2021/11/09 00:01:15;;;;;;;;;51.25;40.00;;;;;7.13;66.11;101772.88;5077062;28;45354;-61
2021/11/09 00:03:45;;;;;;;;;48.50;39.50;;;;;7.11;66.24;101777.34;5077092;27;45301;-61
2021/11/09 00:06:21;;;;;;;;;53.75;43.25;;;;;7.07;66.34;101766.22;5077215;28;45331;-62
2021/11/09 00:08:56;;;;;;;;;50.75;40.00;;;;;7.05;66.38;101767.22;5076626;28;46296;-61
2021/11/09 00:11:21;;;;;;;;;50.50;38.50;;;;;7.02;66.17;101770.84;5076969;28;45312;-61
2021/11/09 00:13:47;;;;;;;;;49.25;39.75;;;;;7.02;66.36;101762.16;5076845;27;45442;-61
2021/11/09 00:16:12;;;;;;;;;52.75;40.00;;;;;7.01;66.28;101768.28;5076983;28;45529;-61
2021/11/09 00:18:38;;;;;;;;;49.25;37.25;;;;;7.02;66.62;101760.38;5076130;28;59315;-62
2021/11/09 00:21:03;;;;;;;;;53.25;41.75;;;;;7.01;66.71;101761.31;5076172;28;66721;-61
2021/11/09 00:23:29;;;;;;;;;56.25;41.00;;;;;7.03;66.73;101753.38;5075470;28;45407;-61
2021/11/09 00:25:55;;;;;;;;;54.75;42.75;;;;;7.02;66.82;101756.91;5075449;28;45583;-61
2021/11/09 00:28:20;;;;;;;;;50.50;40.25;;;;;7.01;66.81;101750.00;5075248;27;47172;-61
2021/11/09 00:30:46;;;;;;;;;51.50;40.50;;;;;7.01;66.73;101753.47;5075713;28;67726;-61
2021/11/09 00:33:11;;;;;;;;;51.50;40.00;;;;;6.98;66.85;101754.47;5076126;28;58192;-61
2021/11/09 00:35:37;;;;;;;;;56.00;38.00;;;;;6.98;67.04;101751.84;5076600;28;45576;-61
2021/11/09 00:38:04;;;;;;;;;53.25;40.25;;;;;7.00;67.00;101757.00;5076195;28;51186;-60
2021/11/09 00:40:30;;;;;;;;;47.75;39.25;;;;;6.97;66.51;101755.38;5076594;28;45758;-61
2021/11/09 00:42:56;;;;;;;;;50.75;38.75;;;;;6.96;66.18;101758.09;5078970;28;45465;-61
2021/11/09 00:45:21;;;;;;;;;48.75;37.25;;;;;6.95;66.25;101762.47;5079057;28;45593;-61
2021/11/09 00:47:47;;;;;;;;;41.75;33.75;;;;;6.94;66.67;101752.94;5078370;28;58432;-61
2021/11/09 00:50:13;;;;;;;;;46.00;34.00;;;;;6.94;66.99;101746.88;5078859;27;45272;-61
2021/11/09 00:52:38;;;;;;;;;46.50;35.75;;;;;6.93;66.80;101746.03;5080320;28;45325;-62
2021/11/09 00:55:04;;;;;;;;;49.75;39.00;;;;;6.92;66.51;101746.94;5080038;27;45565;-61
2021/11/09 00:57:30;;;;;;;;;50.75;37.75;;;;;6.91;66.25;101745.25;5061353;28;46605;-61
2021/11/09 00:59:55;;;;;;;;;47.25;35.25;;;;;6.91;66.31;101749.66;5079258;28;66883;-61
2021/11/09 01:02:20;;;;;;;;;42.25;37.00;;;;;6.88;66.23;101745.47;5079248;28;67533;-60
2021/11/09 01:04:46;;;;;;;;;47.50;36.50;;;;;6.88;66.31;101755.91;5078245;28;57068;-61
2021/11/09 01:07:11;;;;;;;;;47.25;36.25;;;;;6.88;66.38;101762.88;5079187;28;63615;-62
2021/11/09 01:09:36;;;;;;;;;43.25;35.50;;;;;6.87;66.37;101759.44;5077887;28;61549;-61
2021/11/09 01:12:03;;;;;;;;;43.00;36.25;;;;;6.87;66.00;101755.97;5079380;28;54647;-61
2021/11/09 01:14:28;;;;;;;;;46.50;35.00;;;;;6.87;66.58;101763.81;5078559;28;45327;-61
2021/11/09 01:16:53;;;;;;;;;42.25;36.00;;;;;6.85;66.53;101761.28;5079472;28;54754;-61
2021/11/09 01:19:19;;;;;;;;;44.25;36.00;;;;;6.85;66.50;101760.44;5078950;28;61939;-61
2021/11/09 01:21:45;;;;;;;;;51.25;39.50;;;;;6.85;66.62;101765.66;5079174;28;57347;-61
2021/11/09 01:24:11;;;;;;;;;40.00;34.25;;;;;6.84;66.62;101772.66;5079117;28;45375;-62
2021/11/09 01:26:37;;;;;;;;;40.75;33.00;;;;;6.85;66.40;101770.88;5078052;27;46291;-62
2021/11/09 01:29:04;;;;;;;;;48.75;37.00;;;;;6.83;66.51;101763.16;5079702;28;46008;-61
2021/11/09 01:31:29;;;;;;;;;45.75;33.75;;;;;6.82;65.86;101766.69;5079759;28;45385;-61
2021/11/09 01:33:55;;;;;;;;;45.75;36.00;;;;;6.79;65.82;101761.63;5078960;28;55518;-61
2021/11/09 01:36:20;;;;;;;;;46.75;37.00;;;;;6.79;66.11;101766.84;5079281;28;45388;-61
2021/11/09 01:38:46;;;;;;;;;39.25;32.50;;;;;6.79;66.34;101762.44;5078001;28;45336;-62
2021/11/09 01:41:12;;;;;;;;;42.50;34.50;;;;;6.79;66.26;101764.22;5079510;27;45310;-61
2021/11/09 01:43:37;;;;;;;;;40.00;33.50;;;;;6.79;66.01;101774.69;5079393;28;45239;-61
2021/11/09 01:46:04;;;;;;;;;41.25;35.00;;;;;6.79;66.02;101780.72;5079139;28;45251;-61
2021/11/09 01:48:29;;;;;;;;;39.00;34.25;;;;;6.77;65.77;101772.13;5079300;28;45235;-62
2021/11/09 01:50:58;;;;;;;;;39.75;34.25;;;;;6.75;65.63;101776.59;5078826;28;55093;-62
2021/11/09 01:53:23;;;;;;;;;45.75;35.75;;;;;6.76;65.89;101775.66;5078108;28;45464;-62
2021/11/09 01:55:49;;;;;;;;;48.00;37.50;;;;;6.76;66.05;101773.06;5078839;28;46634;-62
2021/11/09 01:58:15;;;;;;;;;43.00;35.25;;;;;6.75;66.19;101776.59;5078065;28;72539;-61
2021/11/09 02:00:45;;;;;;;;;27.25;20.75;;;;;6.72;66.15;101774.13;5079127;28;45323;-61
2021/11/09 02:03:11;;;;;;;;;38.00;32.25;;;;;6.72;66.30;101771.53;5079199;27;45272;-62
2021/11/09 02:05:36;;;;;;;;;42.75;37.00;;;;;6.71;66.23;101772.44;5078990;28;45356;-61
2021/11/09 02:08:02;;;;;;;;;40.75;34.75;;;;;6.70;66.06;101773.38;5078681;28;48527;-61
2021/11/09 02:10:30;;;;;;;;;39.50;34.00;;;;;6.70;66.10;101777.78;5078866;28;45449;-61
2021/11/09 02:12:56;;;;;;;;;38.75;32.75;;;;;6.66;66.00;101767.47;5078948;28;45430;-61
2021/11/09 02:15:22;;;;;;;;;43.00;36.75;;;;;6.65;66.38;101771.00;5078759;27;46255;-61
2021/11/09 02:17:47;;;;;;;;;38.00;34.00;;;;;6.65;66.55;101776.25;5078689;28;45470;-61
2021/11/09 02:20:15;;;;;;;;;39.75;34.50;;;;;6.64;66.35;101771.94;5077415;28;45289;-61
2021/11/09 02:22:41;;;;;;;;;45.75;35.00;;;;;6.61;66.28;101766.88;5078716;28;45239;-61
2021/11/09 02:25:08;;;;;;;;;44.50;34.00;;;;;6.63;66.14;101766.78;5078364;27;45550;-61
2021/11/09 02:27:33;;;;;;;;;36.00;33.50;;;;;6.62;66.04;101772.97;5078211;27;45943;-61
2021/11/09 02:29:59;;;;;;;;;41.00;34.50;;;;;6.63;66.13;101777.22;5078652;27;45394;-62
2021/11/09 02:32:24;;;;;;;;;34.75;31.75;;;;;6.62;66.09;101776.41;5077922;28;61188;-61
2021/11/09 02:34:50;;;;;;;;;39.50;34.25;;;;;6.60;65.86;101775.63;5077105;28;45336;-61
2021/11/09 02:37:17;;;;;;;;;37.00;32.75;;;;;6.59;65.61;101781.78;5078366;28;45361;-61
2021/11/09 02:39:43;;;;;;;;;31.00;30.00;;;;;6.59;65.59;101787.00;5078539;27;45472;-62
2021/11/09 02:42:11;;;;;;;;;29.75;29.25;;;;;6.58;65.76;101785.31;5077312;28;45360;-61
2021/11/09 02:44:36;;;;;;;;;31.75;29.75;;;;;6.56;65.26;101786.31;5078299;27;45271;-61
2021/11/09 02:47:06;;;;;;;;;32.50;30.25;;;;;6.55;65.49;101787.25;5078122;28;53624;-61
2021/11/09 02:49:49;;;;;;;;;32.75;30.50;;;;;6.52;65.37;101786.47;5076619;28;45380;-61
2021/11/09 02:52:15;;;;;;;;;37.25;30.25;;;;;6.49;65.56;101777.94;5078493;28;45260;-60
2021/11/09 02:54:44;;;;;;;;;33.75;29.75;;;;;6.45;65.45;101787.72;5077942;27;45342;-61
2021/11/09 02:57:20;;;;;;;;;40.75;32.75;;;;;6.45;65.60;101784.25;5078133;28;45219;-60
2021/11/09 03:07:49;;;;;;;;;31.25;27.00;;;;;6.45;66.26;101786.84;5077985;27;45909;-61
2021/11/09 03:10:34;;;;;;;;;32.75;25.75;;;;;6.45;66.09;101785.09;5078090;28;45469;-61
2021/11/09 03:13:00;;;;;;;;;35.25;29.75;;;;;6.38;65.66;101789.78;5077930;28;45435;-61
2021/11/09 03:15:28;;;;;;;;;33.25;27.25;;;;;6.36;65.62;101786.38;5077555;28;45520;-61
2021/11/09 03:18:06;;;;;;;;;34.25;29.00;;;;;6.34;65.71;101783.03;5076460;28;45293;-61
2021/11/09 03:20:48;;;;;;;;;28.25;24.75;;;;;6.35;65.57;101778.66;5078680;27;45376;-61
2021/11/09 03:45:06;;;;;;;;;29.50;26.50;;;;;6.29;65.41;101773.75;5077488;28;45349;-60
2021/11/09 03:47:32;;;;;;;;;36.75;30.50;;;;;6.24;65.21;101774.00;5077256;28;46150;-61
2021/11/09 03:49:59;;;;;;;;;36.25;29.25;;;;;6.16;65.09;101771.75;5077231;28;45779;-61
2021/11/09 03:52:28;;;;;;;;;31.75;28.00;;;;;6.09;64.97;101765.16;5077373;28;45516;-60
2021/11/09 03:55:00;;;;;;;;;36.00;31.00;;;;;6.03;64.83;101770.69;5075932;27;45318;-60
2021/11/09 04:00:39;;;;;;;;;34.75;28.50;;;;;5.92;65.07;101771.16;5053542;28;45441;-61
2021/11/09 04:05:53;;;;;;;;;31.00;28.50;;;;;5.93;65.57;101773.72;5065519;27;45429;-60
2021/11/09 04:08:44;;;;;;;;;32.00;27.75;;;;;5.94;65.61;101774.53;5075710;28;46255;-60
2021/11/09 04:11:22;;;;;;;;;25.00;24.25;;;;;5.95;65.63;101771.00;5077019;28;45719;-61
2021/11/09 04:14:05;;;;;;;;;32.25;27.25;;;;;5.94;65.46;101774.53;5076295;28;45296;-61
2021/11/09 04:22:13;;;;;;;;;32.75;22.75;;;;;5.95;66.21;101778.84;5076690;28;45801;-61
2021/11/09 05:11:32;;;;;;;;;26.00;21.50;;;;;5.49;65.42;101806.19;5076170;28;45340;-60
2021/11/09 05:13:58;;;;;;;;;27.50;25.00;;;;;5.48;65.33;101819.31;5074656;28;45394;-61
2021/11/09 05:16:23;;;;;;;;;27.25;24.50;;;;;5.47;65.53;101821.06;5076222;27;45330;-60
2021/11/09 05:18:49;;;;;;;;;30.25;28.50;;;;;5.46;65.68;101815.94;5075254;28;62251;-61
2021/11/09 05:21:14;;;;;;;;;38.25;26.75;;;;;5.45;65.90;101819.47;5075847;28;46158;-61
2021/11/09 05:23:40;;;;;;;;;36.75;29.25;;;;;5.45;66.11;101815.09;5075173;28;68248;-60
2021/11/09 05:26:05;;;;;;;;;26.25;25.50;;;;;5.43;66.35;101822.13;5075765;28;45149;-61
2021/11/09 05:28:30;;;;;;;;;34.00;26.50;;;;;5.41;66.11;101823.94;5078599;27;45462;-60
2021/11/09 05:30:56;;;;;;;;;36.00;31.00;;;;;5.38;65.92;101826.69;5078620;28;64588;-60
2021/11/09 05:33:22;;;;;;;;;35.50;27.25;;;;;5.35;66.06;101837.25;5079372;28;45223;-60
2021/11/09 05:35:49;;;;;;;;;33.50;29.75;;;;;5.34;66.17;101832.97;5079366;27;45376;-60
2021/11/09 05:38:18;;;;;;;;;33.50;29.00;;;;;5.33;66.44;101834.75;5079318;28;45594;-60
2021/11/09 05:40:52;;;;;;;;;33.75;25.50;;;;;5.33;65.70;101836.50;5078976;28;45701;-60
2021/11/09 05:43:17;;;;;;;;;33.00;28.75;;;;;5.31;65.59;101836.56;5078558;28;45831;-60
2021/11/09 05:45:42;;;;;;;;;33.25;28.00;;;;;5.31;65.80;101843.53;5077322;28;69319;-60
2021/11/09 05:48:08;;;;;;;;;36.75;26.25;;;;;5.30;65.97;101847.91;5078327;27;68130;-60
2021/11/09 05:50:33;;;;;;;;;40.75;30.25;;;;;5.27;66.01;101840.22;5077895;27;75411;-60
2021/11/09 05:52:59;;;;;;;;;32.75;28.50;;;;;5.26;66.25;101837.72;5077935;27;69776;-60
2021/11/09 05:55:24;;;;;;;;;39.75;33.25;;;;;5.24;66.43;101842.16;5077955;28;45301;-60
2021/11/09 05:57:49;;;;;;;;;30.75;26.25;;;;;5.22;66.44;101844.81;5079136;27;45250;-60
2021/11/09 06:00:15;;;;;;;;;29.00;24.75;;;;;5.22;65.96;101854.41;5078316;27;65566;-60
2021/11/09 06:02:41;;;;;;;;;36.25;29.25;;;;;5.20;65.76;101854.44;5078934;28;45292;-59
2021/11/09 06:05:07;;;;;;;;;30.00;27.00;;;;;5.18;65.91;101858.88;5078881;28;45162;-59
2021/11/09 06:07:32;;;;;;;;;35.00;30.75;;;;;5.13;65.78;101856.50;5078782;28;45640;-61
2021/11/09 06:09:57;;;;;;;;;36.00;29.25;;;;;5.11;65.76;101863.53;5077794;28;67889;-62
2021/11/09 06:12:23;;;;;;;;;31.25;27.50;;;;;5.13;65.68;101864.31;5076544;28;68661;-62
2021/11/09 06:14:48;;;;;;;;;38.50;29.25;;;;;5.12;65.76;101865.22;5077856;28;57820;-62
2021/11/09 06:17:14;;;;;;;;;36.50;30.50;;;;;5.10;65.57;101871.38;5077807;28;68266;-62
2021/11/09 06:19:39;;;;;;;;;28.75;26.75;;;;;5.10;65.72;101872.25;5076379;27;66929;-62
2021/11/09 06:22:04;;;;;;;;;33.75;31.50;;;;;5.09;65.96;101875.78;5077542;27;69652;-62
2021/11/09 06:24:30;;;;;;;;;41.50;31.75;;;;;5.09;65.90;101874.91;5077617;28;62500;-61
2021/11/09 06:26:55;;;;;;;;;36.00;32.00;;;;;5.04;65.83;101875.97;5078241;27;45652;-61
2021/11/09 06:29:21;;;;;;;;;39.75;35.75;;;;;5.00;66.01;101878.78;5077342;27;71574;-61
2021/11/09 06:31:49;;;;;;;;;40.00;31.75;;;;;4.99;66.19;101877.94;5077670;27;63334;-61
2021/11/09 06:34:14;;;;;;;;;34.50;31.25;;;;;4.95;65.79;101878.13;5078281;27;45340;-61
2021/11/09 06:36:39;;;;;;;;;39.75;33.00;;;;;4.91;65.89;101874.81;5077641;28;55586;-61
2021/11/09 06:39:05;;;;;;;;;39.75;35.75;;;;;4.89;66.11;101882.69;5076655;28;71123;-61
2021/11/09 06:41:30;;;;;;;;;41.50;36.75;;;;;4.88;66.45;101878.38;5078347;27;45438;-61
2021/11/09 06:43:56;;;;;;;;;44.50;34.25;;;;;4.88;66.42;101885.38;5077435;27;61608;-61
2021/11/09 06:46:21;;;;;;;;;43.75;34.50;;;;;4.87;66.49;101881.91;5077987;27;45442;-61
2021/11/09 06:48:47;;;;;;;;;42.25;38.50;;;;;4.88;66.50;101885.38;5077187;28;65398;-61
2021/11/09 06:51:13;;;;;;;;;47.00;36.25;;;;;4.85;66.64;101883.72;5076593;27;45413;-60
2021/11/09 06:53:38;;;;;;;;;42.50;35.50;;;;;4.83;66.53;101887.31;5075680;28;63120;-61
2021/11/09 06:56:03;;;;;;;;;42.00;35.50;;;;;4.81;66.67;101886.53;5077476;27;52561;-61
2021/11/09 06:58:29;;;;;;;;;46.50;33.75;;;;;4.80;66.56;101884.84;5076446;27;49578;-61
2021/11/09 07:00:55;;;;;;;;;47.75;38.25;;;;;4.80;66.33;101896.09;5077987;28;45314;-61
2021/11/09 07:03:20;;;;;;;;;53.50;42.25;;;;;4.80;66.55;101896.09;5077809;28;45309;-61
2021/11/09 07:05:46;;;;;;;;;54.50;41.75;;;;;4.81;66.67;101895.19;5077356;28;45594;-61
2021/11/09 07:08:11;;;;;;;;;56.50;45.50;;;;;4.81;66.80;101891.75;5076854;28;71306;-61
2021/11/09 07:10:36;;;;;;;;;83.00;61.00;;;;;4.82;67.01;101894.25;5076695;27;67682;-61
2021/11/09 07:13:02;;;;;;;;;85.75;61.00;;;;;4.84;67.08;101897.66;5077047;28;61751;-61
2021/11/09 07:15:27;;;;;;;;;66.75;46.75;;;;;4.85;67.25;101899.34;5076904;27;59104;-61
2021/11/09 07:17:53;;;;;;;;;47.75;38.50;;;;;4.86;67.47;101900.22;5077397;28;48096;-61
2021/11/09 07:20:19;;;;;;;;;42.50;36.00;;;;;4.86;67.92;101895.84;5077494;28;45324;-61
2021/11/09 07:22:45;;;;;;;;;46.50;36.50;;;;;4.88;68.52;101899.22;5077655;28;45421;-61
2021/11/09 07:25:10;;;;;;;;;47.00;36.25;;;;;4.91;68.74;101908.69;5077430;28;45436;-60
2021/11/09 07:27:36;;;;;;;;;57.50;42.75;;;;;4.94;69.04;101912.91;5077417;28;46496;-61
2021/11/09 07:30:03;;;;;;;;;55.75;46.25;;;;;4.97;69.22;101916.22;5077405;27;45369;-61
2021/11/09 07:32:29;;;;;;;;;55.75;42.75;;;;;5.01;69.14;101911.72;5077488;27;45317;-61
2021/11/09 07:34:55;;;;;;;;;52.75;40.75;;;;;5.05;69.28;101910.69;5077403;28;45524;-61
2021/11/09 07:37:20;;;;;;;;;53.50;43.25;;;;;5.10;69.49;101918.28;5077133;28;46370;-60
2021/11/09 07:39:47;;;;;;;;;60.75;47.25;;;;;5.10;69.34;101921.75;5077235;28;45276;-61
2021/11/09 07:42:13;;;;;;;;;54.75;44.00;;;;;5.11;69.55;101920.84;5077203;28;45437;-61
2021/11/09 07:44:39;;;;;;;;;55.75;44.25;;;;;5.14;69.38;101923.31;5076058;28;45647;-61
2021/11/09 07:47:04;;;;;;;;;57.50;44.75;;;;;5.17;69.21;101925.78;5076296;28;69261;-61
2021/11/09 07:49:30;;;;;;;;;55.50;40.50;;;;;5.19;69.65;101929.19;5076995;28;45250;-61
2021/11/09 07:51:56;;;;;;;;;59.00;42.00;;;;;5.23;69.77;101935.09;5076100;28;45235;-61
2021/11/09 07:54:33;;;;;;;;;53.00;40.25;;;;;5.26;69.55;101931.53;5077088;27;45166;-60
2021/11/09 07:57:16;;;;;;;;;40.00;32.50;;;;;5.29;69.86;101934.81;5075319;28;47489;-61
2021/11/09 07:59:58;;;;;;;;;54.25;41.50;;;;;5.30;69.89;101933.91;5077206;28;45809;-61
2021/11/09 08:04:55;;;;;;;;;54.25;38.00;;;;;5.36;69.95;101940.59;5076925;28;45508;-61
2021/11/09 08:07:25;;;;;;;;;59.25;42.25;;;;;5.37;70.14;101939.69;5076808;27;46076;-60
2021/11/09 08:09:51;;;;;;;;;53.00;39.75;;;;;5.41;69.78;101941.25;5076830;28;45236;-61
2021/11/09 08:12:17;;;;;;;;;54.00;41.00;;;;;5.46;70.01;101939.28;5077047;27;45207;-60
2021/11/09 08:14:42;;;;;;;;;56.00;41.25;;;;;5.53;69.74;101936.41;5076201;28;56521;-61
2021/11/09 08:17:08;;;;;;;;;59.00;40.75;;;;;5.57;69.68;101928.38;5076384;28;50724;-59
2021/11/09 08:19:33;;;;;;;;;53.75;37.75;;;;;5.60;69.51;101928.25;5076097;27;52084;-59
2021/11/09 08:21:58;;;;;;;;;56.50;41.00;;;;;5.66;69.40;101932.34;5076825;28;45423;-60
2021/11/09 08:24:24;;;;;;;;;60.75;44.00;;;;;5.71;69.41;101937.34;5075476;27;45573;-60
2021/11/09 08:26:50;;;;;;;;;58.50;42.25;;;;;5.78;69.28;101946.59;5076199;28;45419;-60
2021/11/09 08:29:16;;;;;;;;;46.75;39.00;;;;;5.85;69.34;101942.78;5074916;28;45461;-60
2021/11/09 08:31:43;;;;;;;;;44.25;35.25;;;;;5.90;69.31;101933.00;5075927;28;45467;-60
2021/11/09 08:34:08;;;;;;;;;45.25;37.25;;;;;5.98;69.14;101943.06;5072492;28;45509;-60
2021/11/09 08:36:34;;;;;;;;;38.75;33.75;;;;;6.04;69.12;101940.19;5075153;28;45478;-60
2021/11/09 08:39:01;;;;;;;;;37.75;34.25;;;;;6.14;68.73;101942.38;5075141;28;45367;-60
2021/11/09 08:41:27;;;;;;;;;42.75;34.50;;;;;6.22;68.65;101941.09;5075253;27;45694;-60
2021/11/09 08:44:06;;;;;;;;;45.75;35.25;;;;;6.31;68.80;101941.56;5075229;28;45465;-60
2021/11/09 08:46:51;;;;;;;;;46.75;35.75;;;;;6.45;68.56;101930.44;5075437;28;46236;-60
2021/11/09 08:49:18;;;;;;;;;44.25;35.00;;;;;6.65;68.33;101938.16;5073475;28;45437;-60
2021/11/09 08:51:44;;;;;;;;;38.50;31.50;;;;;6.85;68.23;101941.56;5074961;28;45240;-61
2021/11/09 08:54:12;;;;;;;;;42.50;34.00;;;;;7.08;68.08;101940.41;5074027;28;45487;-60
2021/11/09 09:04:48;;;;;;;;;36.25;30.00;;;;;8.19;65.85;101943.28;5075514;28;45451;-60
2021/11/09 09:07:13;;;;;;;;;41.75;34.00;;;;;8.43;65.37;101935.81;5078218;27;46225;-60
2021/11/09 09:09:39;;;;;;;;;36.50;28.25;;;;;8.68;64.96;101939.66;5077760;28;68741;-61
2021/11/09 09:12:04;;;;;;;;;31.25;25.50;;;;;8.93;64.34;101938.22;5078331;27;45634;-60
2021/11/09 09:14:30;;;;;;;;;34.50;27.25;;;;;9.19;64.21;101930.56;5075754;27;45295;-60
2021/11/09 09:16:56;;;;;;;;;32.75;27.00;;;;;9.44;63.23;101932.53;5073460;27;46561;-61
2021/11/09 09:19:27;;;;;;;;;31.75;28.75;;;;;9.67;62.81;101935.53;5076460;28;46148;-60
2021/11/09 09:22:04;;;;;;;;;37.75;32.75;;;;;9.88;62.26;101929.84;5077201;27;45607;-60
2021/11/09 09:56:19;;;;;;;;;22.25;16.50;;;;;12.54;55.46;101926.66;5076391;28;45489;-61
2021/11/09 09:58:45;;;;;;;;;18.50;17.00;;;;;12.68;55.60;101923.00;5073101;28;46190;-60
2021/11/09 10:01:11;;;;;;;;;20.50;16.75;;;;;12.83;55.10;101920.16;5075030;28;45435;-60
2021/11/09 10:03:38;;;;;;;;;20.50;16.00;;;;;13.00;54.34;101921.50;5076222;27;45435;-60
2021/11/09 10:06:06;;;;;;;;;20.00;16.75;;;;;13.15;53.48;101909.78;5074696;27;45493;-60
2021/11/09 10:08:40;;;;;;;;;16.25;13.75;;;;;13.27;53.68;101912.38;5075538;28;45474;-60
2021/11/09 10:11:05;;;;;;;;;19.50;15.25;;;;;13.37;52.95;101913.34;5074793;28;45465;-61
2021/11/09 10:13:30;;;;;;;;;19.25;16.25;;;;;13.45;53.12;101913.63;5066294;28;45469;-60
2021/11/09 10:15:56;;;;;;;;;18.50;14.50;;;;;13.53;52.55;101909.53;5054918;28;45623;-60
2021/11/09 10:18:23;;;;;;;;;21.75;14.75;;;;;13.58;51.98;101916.13;5075058;28;46868;-60
2021/11/09 10:20:53;;;;;;;;;14.50;12.00;;;;;13.64;51.72;101914.81;5074397;27;45325;-62
2021/11/09 10:23:22;;;;;;;;;13.50;11.50;;;;;13.77;51.47;101907.59;5076028;27;45431;-60
2021/11/09 10:25:48;;;;;;;;;16.25;14.00;;;;;13.91;51.55;101901.19;5075899;27;45359;-61
2021/11/09 10:28:18;;;;;;;;;17.00;14.25;;;;;14.02;52.02;101902.13;5075757;28;46573;-61
2021/11/09 10:30:55;;;;;;;;;20.75;16.25;;;;;14.11;49.93;101904.00;5073942;28;45583;-60
2021/11/09 10:33:24;;;;;;;;;18.00;14.75;;;;;14.14;50.33;101905.56;5074349;27;45486;-60
2021/11/09 10:35:49;;;;;;;;;17.00;16.75;;;;;14.18;49.71;101905.19;5073170;28;45641;-60
2021/11/09 10:38:14;;;;;;;;;17.00;15.25;;;;;14.15;48.95;101901.97;5072795;28;46318;-59
2021/11/09 10:40:44;;;;;;;;;21.25;16.00;;;;;14.04;48.51;101885.16;5072930;28;63977;-61
2021/11/09 10:43:11;;;;;;;;;20.50;17.25;;;;;13.92;48.77;101899.38;5072643;28;45554;-60
2021/11/09 10:45:37;;;;;;;;;19.25;16.25;;;;;13.77;48.85;101889.09;5071418;27;45554;-60
2021/11/09 10:48:14;;;;;;;;;24.50;17.50;;;;;13.67;49.50;101896.09;5075904;27;46222;-61
2021/11/09 10:50:44;;;;;;;;;23.50;17.00;;;;;13.55;49.82;101894.41;5072842;28;46056;-59
2021/11/09 10:56:06;;;;;;;;;18.75;16.50;;;;;13.30;49.94;101894.53;5074416;28;45471;-60
2021/11/09 11:04:00;;;;;;;;;21.50;19.00;;;;;12.99;50.65;101894.25;5009219;28;45544;-61
2021/11/09 11:06:36;;;;;;;;;22.50;17.75;;;;;12.88;50.20;101886.34;5073413;28;45443;-60
2021/11/09 11:09:07;;;;;;;;;25.50;22.00;;;;;12.80;51.30;101886.94;5072509;28;46451;-60
2021/11/09 11:11:46;;;;;;;;;28.75;23.25;;;;;12.79;51.06;101887.06;5074390;27;45450;-61
2021/11/09 11:14:16;;;;;;;;;23.75;22.75;;;;;12.79;51.93;101893.16;5074104;28;45312;-60
2021/11/09 11:16:52;;;;;;;;;27.50;21.25;;;;;12.81;52.42;101883.34;5070665;28;45563;-60
2021/11/09 11:19:18;;;;;;;;;19.25;17.25;;;;;12.84;52.31;101880.47;5074289;27;46326;-60
2021/11/09 11:21:44;;;;;;;;;17.00;14.75;;;;;12.84;51.55;101875.19;5073986;27;45502;-60
2021/11/09 11:24:10;;;;;;;;;15.00;13.25;;;;;12.86;51.74;101877.72;5072342;27;45454;-60
2021/11/09 11:26:36;;;;;;;;;17.00;11.50;;;;;12.88;51.74;101873.16;5075446;28;45407;-60
2021/11/09 11:29:03;;;;;;;;;12.00;10.50;;;;;12.90;51.15;101866.81;5071555;28;45617;-61
2021/11/09 11:31:28;;;;;;;;;16.75;11.00;;;;;12.90;51.00;101864.16;5075182;28;45432;-61
2021/11/09 11:33:54;;;;;;;;;8.25;7.00;;;;;12.93;51.27;101859.63;5073916;28;45370;-60
2021/11/09 11:36:19;;;;;;;;;8.00;7.75;;;;;12.93;50.59;101849.91;5073986;27;70334;-61
2021/11/09 11:38:46;;;;;;;;;4.25;2.75;;;;;12.98;50.40;101850.38;5073626;27;46829;-60
2021/11/09 11:41:11;;;;;;;;;6.75;5.50;;;;;13.03;49.82;101847.38;5073041;28;45342;-61
2021/11/09 11:43:43;;;;;;;;;8.50;8.00;;;;;13.07;50.12;101843.56;5073583;28;45509;-61
2021/11/09 11:46:11;;;;;;;;;13.75;8.00;;;;;13.09;49.60;101831.09;5073745;28;45492;-60
2021/11/09 11:48:56;;;;;;;;;9.00;7.00;;;;;13.10;49.54;101832.75;5072693;28;46310;-61
2021/11/09 11:51:21;;;;;;;;;10.25;8.50;;;;;13.11;50.11;101823.03;5074235;28;46057;-61
2021/11/09 11:53:49;;;;;;;;;11.25;9.50;;;;;13.13;49.64;101832.53;5072564;27;45409;-61
2021/11/09 11:56:16;;;;;;;;;12.25;9.25;;;;;13.16;49.88;101829.63;5069517;28;46508;-60
2021/11/09 11:58:42;;;;;;;;;10.00;7.00;;;;;13.19;50.06;101828.53;5071563;28;45478;-61
2021/11/09 12:01:07;;;;;;;;;13.00;8.00;;;;;13.21;49.50;101821.34;5073392;28;45482;-60
2021/11/09 12:03:34;;;;;;;;;8.00;8.00;;;;;13.23;49.85;101821.25;5073600;28;45474;-61
2021/11/09 12:06:21;;;;;;;;;10.50;7.25;;;;;13.23;50.09;101818.59;5074378;28;45331;-61
2021/11/09 12:08:49;;;;;;;;;7.25;7.00;;;;;13.20;49.94;101812.59;5073699;28;45445;-61
2021/11/09 12:11:23;;;;;;;;;11.50;7.25;;;;;13.20;49.62;101812.59;5073038;28;45538;-62
2021/11/09 12:14:17;;;;;;;;;8.25;5.75;;;;;13.19;49.82;101810.06;5074528;28;45538;-60
2021/11/09 12:16:55;;;;;;;;;8.75;6.00;;;;;13.18;49.42;101803.97;5072547;28;45558;-60
2021/11/09 12:19:35;;;;;;;;;5.75;4.50;;;;;13.16;49.25;101795.34;5071196;28;45646;-60
2021/11/09 12:22:05;;;;;;;;;11.25;5.25;;;;;13.15;48.92;101796.28;5073492;27;45388;-60
2021/11/09 12:24:31;;;;;;;;;5.00;5.00;;;;;13.16;49.53;101794.47;5073433;27;45459;-60
2021/11/09 12:26:57;;;;;;;;;9.00;6.00;;;;;13.18;48.92;101793.41;5036869;28;45904;-60
2021/11/09 12:29:35;;;;;;;;;6.75;4.75;;;;;13.24;48.81;101791.25;5073085;28;50359;-60
2021/11/09 12:32:21;;;;;;;;;7.75;6.50;;;;;13.29;48.58;101782.00;5070078;28;45507;-61
2021/11/09 12:35:09;;;;;;;;;5.75;4.75;;;;;13.36;47.77;101782.31;5074343;28;45458;-61
2021/11/09 12:37:40;;;;;;;;;8.00;5.00;;;;;13.43;47.96;101780.91;5073403;28;45446;-60
2021/11/09 12:40:43;;;;;;;;;7.25;6.00;;;;;13.54;47.63;101779.19;5072058;28;46321;-60
2021/11/09 12:43:12;;;;;;;;;9.00;4.00;;;;;13.60;47.03;101782.16;5072880;28;45962;-61
2021/11/09 12:45:38;;;;;;;;;5.00;5.00;;;;;13.63;47.51;101778.44;5073689;27;45226;-60
2021/11/09 12:48:06;;;;;;;;;5.50;5.00;;;;;13.64;46.88;101777.50;5069873;28;45615;-61
2021/11/09 12:50:32;;;;;;;;;8.25;5.50;;;;;13.67;47.28;101776.38;5071995;27;46417;-60
2021/11/09 12:53:11;;;;;;;;;6.75;6.00;;;;;13.63;46.93;101781.09;5072631;28;45506;-60
2021/11/09 12:55:37;;;;;;;;;6.75;5.75;;;;;13.58;47.22;101773.53;5071959;28;45406;-60
2021/11/09 12:58:22;;;;;;;;;6.00;4.00;;;;;13.54;47.03;101779.19;5073603;28;45441;-61
2021/11/09 13:01:20;;;;;;;;;5.25;4.25;;;;;13.45;46.45;101778.97;5073370;28;45273;-61
2021/11/09 13:03:56;;;;;;;;;4.25;4.00;;;;;13.39;46.64;101768.06;5070788;27;45828;-60
2021/11/09 13:07:08;;;;;;;;;5.00;3.50;;;;;13.31;45.88;101769.50;5072323;28;45388;-61
2021/11/09 13:09:36;;;;;;;;;7.00;3.75;;;;;13.31;45.55;101769.50;5070578;28;45570;-60
2021/11/09 13:12:04;;;;;;;;;6.00;2.25;;;;;13.27;45.26;101769.84;5071373;28;45481;-60
2021/11/09 13:14:34;;;;;;;;;5.00;3.25;;;;;13.26;46.10;101768.19;5072996;28;45430;-61
2021/11/09 13:16:59;;;;;;;;;7.25;5.75;;;;;13.23;46.80;101771.09;5071051;28;45565;-61
2021/11/09 13:19:26;;;;;;;;;3.50;3.00;;;;;13.19;46.11;101775.75;5072208;27;45703;-60
2021/11/09 13:22:08;;;;;;;;;4.50;3.50;;;;;13.17;45.77;101775.91;5072160;28;46439;-60
2021/11/09 13:24:35;;;;;;;;;9.25;6.00;;;;;13.14;45.68;101759.44;5072911;28;45517;-61
2021/11/09 13:27:00;;;;;;;;;7.50;4.00;;;;;13.12;46.24;101762.22;5073230;27;45456;-59
2021/11/09 13:29:26;;;;;;;;;6.25;5.00;;;;;13.10;46.21;101761.50;5071187;28;45776;-60
2021/11/09 13:31:51;;;;;;;;;6.00;6.00;;;;;13.07;46.32;101754.66;5071460;28;46052;-60
2021/11/09 13:34:17;;;;;;;;;11.00;7.50;;;;;13.05;46.97;101756.59;5070310;28;54492;-60
2021/11/09 13:36:43;;;;;;;;;8.50;6.75;;;;;13.03;47.33;101757.69;5069408;28;45478;-60
2021/11/09 13:39:08;;;;;;;;;6.75;4.50;;;;;13.02;47.00;101756.00;5069730;28;45438;-60
2021/11/09 13:41:34;;;;;;;;;6.25;4.00;;;;;13.01;46.83;101755.16;5072728;28;45512;-61